Time;durP1;ratioP1;P1;durP2;ratioP2;P2;SDS_P1;SDS_P2;PMS_P1;PMS_P2;Temp;Humidity;BMP_temperature;BMP_pressure;BME280_temperature;BME280_humidity;BME280_pressure;Samples;Min_cycle;Max_cycle;Signal;HPM_P1;HPM_P2
2023/05/18 05:04:06;;;;;;;12.13;5.60;;;6.60;99.90;;;;;;4868343;29;20095;-67
2023/05/18 05:06:31;;;;;;;11.50;5.22;;;6.60;99.90;;;;;;4860187;29;20029;-67
2023/05/18 05:08:57;;;;;;;10.48;5.55;;;6.70;99.90;;;;;;4871187;29;20315;-66
2023/05/18 05:11:23;;;;;;;10.55;5.70;;;6.80;99.90;;;;;;4860674;29;20034;-67
2023/05/18 05:13:48;;;;;;;9.68;5.40;;;6.80;99.90;;;;;;4870173;29;20056;-66
2023/05/18 05:16:14;;;;;;;11.80;5.45;;;6.90;99.90;;;;;;4870157;29;20039;-66
2023/05/18 05:18:40;;;;;;;10.88;4.47;;;7.00;99.90;;;;;;4865046;29;20041;-67
2023/05/18 05:21:07;;;;;;;8.85;4.88;;;7.00;99.90;;;;;;4852278;29;20206;-66
2023/05/18 05:23:33;;;;;;;10.68;4.65;;;7.10;99.90;;;;;;4855180;29;20116;-67
2023/05/18 05:25:59;;;;;;;11.75;4.88;;;7.30;99.90;;;;;;4854347;29;20033;-66
2023/05/18 05:28:26;;;;;;;13.32;5.25;;;7.30;99.90;;;;;;4855070;29;20029;-67
2023/05/18 05:30:52;;;;;;;11.20;4.38;;;7.40;99.90;;;;;;4854564;29;20025;-68
2023/05/18 05:33:18;;;;;;;8.88;4.30;;;7.50;99.90;;;;;;4870219;29;20037;-67
2023/05/18 05:35:43;;;;;;;11.60;4.03;;;7.50;99.90;;;;;;4854414;29;20025;-67
2023/05/18 05:38:09;;;;;;;10.48;3.92;;;7.60;99.90;;;;;;4871178;29;20322;-68
2023/05/18 05:40:35;;;;;;;11.88;5.05;;;7.70;99.90;;;;;;4871099;29;20045;-66
2023/05/18 05:43:03;;;;;;;9.50;4.50;;;7.70;99.90;;;;;;4854219;29;20305;-67
2023/05/18 05:45:29;;;;;;;8.18;4.70;;;7.80;99.90;;;;;;4854595;29;20315;-68
2023/05/18 05:47:58;;;;;;;9.05;4.03;;;7.80;99.90;;;;;;4869321;29;20049;-68
2023/05/18 05:50:24;;;;;;;9.88;4.13;;;7.90;99.90;;;;;;4854581;29;20033;-68
2023/05/18 05:52:52;;;;;;;;;;;8.00;99.90;;;;;;4854392;29;20036;-67
2023/05/18 05:55:21;;;;;;;8.63;3.70;;;8.10;99.90;;;;;;4869839;29;19919;-68
2023/05/18 05:57:47;;;;;;;9.98;3.90;;;8.20;99.90;;;;;;4868953;29;20214;-66
2023/05/18 06:00:13;;;;;;;11.52;4.45;;;8.20;99.90;;;;;;4854563;29;20057;-67
2023/05/18 06:02:50;;;;;;;11.52;4.20;;;8.30;99.90;;;;;;4862424;29;20098;-68
2023/05/18 06:05:23;;;;;;;9.45;3.97;;;8.40;99.90;;;;;;4853808;29;20315;-67
2023/05/18 06:07:50;;;;;;;11.30;4.30;;;8.40;99.90;;;;;;4843660;29;20037;-69
2023/05/18 06:10:15;;;;;;;8.02;3.78;;;8.50;99.90;;;;;;4855726;29;20026;-69
2023/05/18 06:12:41;;;;;;;7.53;3.78;;;8.60;99.90;;;;;;4842973;29;20089;-69
2023/05/18 06:15:08;;;;;;;8.13;3.75;;;8.70;99.90;;;;;;4856172;29;20026;-68
2023/05/18 06:17:36;;;;;;;10.05;3.83;;;8.80;99.90;;;;;;4836065;29;20227;-66
2023/05/18 06:20:03;;;;;;;7.93;3.70;;;9.00;99.90;;;;;;4847448;29;20037;-67
2023/05/18 06:22:29;;;;;;;8.40;3.53;;;9.10;99.90;;;;;;4863992;29;20036;-66
2023/05/18 06:25:14;;;;;;;10.82;4.30;;;9.10;99.90;;;;;;4835790;29;20030;-67
2023/05/18 06:28:03;;;;;;;10.43;3.60;;;9.30;99.90;;;;;;4845713;29;20196;-67
2023/05/18 06:30:40;;;;;;;7.40;3.65;;;9.30;99.90;;;;;;4851647;29;20033;-68
2023/05/18 06:33:22;;;;;;;7.60;3.25;;;9.50;99.90;;;;;;4835968;29;20180;-67
2023/05/18 06:35:48;;;;;;;8.55;3.60;;;9.70;99.90;;;;;;4841181;29;20037;-68
2023/05/18 06:38:13;;;;;;;9.07;2.67;;;9.80;99.90;;;;;;4870267;29;20113;-69
2023/05/18 06:40:39;;;;;;;7.97;2.72;;;10.00;99.90;;;;;;4835872;29;20033;-68
2023/05/18 06:43:05;;;;;;;8.90;3.53;;;10.10;99.90;;;;;;4846202;29;20539;-70
2023/05/18 06:45:41;;;;;;;8.50;3.05;;;10.30;99.90;;;;;;4850833;29;20074;-68
2023/05/18 06:48:17;;;;;;;7.93;3.15;;;10.40;99.90;;;;;;4835721;29;20086;-67
2023/05/18 06:50:43;;;;;;;8.45;2.53;;;10.60;99.90;;;;;;4835349;29;20034;-68
2023/05/18 06:53:09;;;;;;;10.45;2.88;;;10.70;99.90;;;;;;4847276;29;20036;-68
2023/05/18 06:55:36;;;;;;;10.73;2.97;;;10.80;99.50;;;;;;4835627;29;20249;-69
2023/05/18 06:58:03;;;;;;;11.88;2.78;;;10.90;98.80;;;;;;4855766;29;20057;-68
2023/05/18 07:00:29;;;;;;;11.98;3.22;;;10.90;98.90;;;;;;4852656;29;20029;-68
2023/05/18 07:02:55;;;;;;;8.20;2.70;;;11.10;98.70;;;;;;4865966;29;20076;-69
2023/05/18 07:05:22;;;;;;;6.93;3.08;;;11.30;98.30;;;;;;4875954;29;20029;-66
2023/05/18 07:07:47;;;;;;;9.13;2.97;;;11.40;98.10;;;;;;4877015;29;20323;-67
2023/05/18 07:10:13;;;;;;;7.03;2.25;;;11.40;97.20;;;;;;4873839;29;20029;-66
2023/05/18 07:12:39;;;;;;;7.40;2.75;;;11.50;97.40;;;;;;4873825;29;20043;-68
2023/05/18 07:15:06;;;;;;;9.63;3.10;;;11.70;97.40;;;;;;4873034;29;20029;-67
2023/05/18 07:17:32;;;;;;;10.25;2.63;;;11.80;96.60;;;;;;4873906;29;20286;-72
2023/05/18 07:19:58;;;;;;;7.63;2.83;;;11.90;96.70;;;;;;4872966;29;20053;-68
2023/05/18 07:22:23;;;;;;;8.05;2.92;;;12.10;96.80;;;;;;4873612;29;20096;-67
2023/05/18 07:24:50;;;;;;;8.15;2.80;;;12.20;96.40;;;;;;4872986;29;20053;-67
2023/05/18 07:27:15;;;;;;;7.47;2.50;;;12.40;95.60;;;;;;4873457;29;20033;-67
2023/05/18 07:29:41;;;;;;;6.03;2.85;;;12.60;95.90;;;;;;4873890;29;20097;-66
2023/05/18 07:32:07;;;;;;;7.82;3.03;;;12.60;95.30;;;;;;4873131;29;20033;-69
2023/05/18 07:34:32;;;;;;;7.50;2.97;;;12.70;95.50;;;;;;4873521;29;20034;-69
2023/05/18 07:36:58;;;;;;;6.38;2.80;;;12.80;95.00;;;;;;4873095;29;20092;-66
2023/05/18 07:39:27;;;;;;;8.85;3.08;;;13.00;95.10;;;;;;4872968;29;20044;-69
2023/05/18 07:41:54;;;;;;;6.13;2.75;;;13.00;94.60;;;;;;4872759;29;20048;-73
2023/05/18 07:44:20;;;;;;;8.40;2.88;;;13.20;94.70;;;;;;4873032;29;20028;-67
2023/05/18 07:46:45;;;;;;;8.70;3.30;;;13.30;94.50;;;;;;4872882;29;20037;-68
2023/05/18 07:49:11;;;;;;;7.18;2.58;;;13.40;94.10;;;;;;4872747;29;20065;-67
2023/05/18 07:51:37;;;;;;;8.07;2.97;;;13.60;93.90;;;;;;4873133;29;20042;-68
2023/05/18 07:54:04;;;;;;;7.82;2.80;;;13.60;93.50;;;;;;4872857;29;20057;-69
2023/05/18 07:56:30;;;;;;;7.97;2.90;;;13.70;93.20;;;;;;4872740;29;20281;-68
2023/05/18 07:58:56;;;;;;;9.43;3.15;;;13.80;93.30;;;;;;4885507;29;20084;-68
2023/05/18 08:01:26;;;;;;;10.23;2.70;;;13.90;93.20;;;;;;4872624;29;20033;-68
2023/05/18 08:03:53;;;;;;;7.63;2.90;;;14.10;92.70;;;;;;4881674;29;20097;-68
2023/05/18 08:06:19;;;;;;;10.68;2.78;;;14.20;92.60;;;;;;4872820;29;20034;-68
2023/05/18 08:08:44;;;;;;;10.00;2.60;;;14.40;92.50;;;;;;4872588;29;20029;-69
2023/05/18 08:11:11;;;;;;;10.05;2.70;;;14.50;91.90;;;;;;4878574;29;20064;-68
2023/05/18 08:13:37;;;;;;;8.43;2.72;;;14.70;91.70;;;;;;4879034;29;20323;-68
2023/05/18 08:16:03;;;;;;;9.50;3.22;;;14.70;91.40;;;;;;4871923;29;20078;-69
2023/05/18 08:18:28;;;;;;;10.68;3.03;;;14.80;91.40;;;;;;4872545;29;20097;-68
2023/05/18 08:20:54;;;;;;;7.93;2.58;;;14.90;91.40;;;;;;4872002;29;20040;-68
2023/05/18 08:23:22;;;;;;;8.25;3.00;;;15.00;90.90;;;;;;4872735;29;20044;-69
2023/05/18 08:25:47;;;;;;;10.77;2.85;;;15.10;90.90;;;;;;4872414;29;20135;-67
2023/05/18 08:28:13;;;;;;;8.88;2.67;;;15.20;90.30;;;;;;4871945;29;20056;-68
2023/05/18 08:30:39;;;;;;;7.28;2.75;;;15.20;90.20;;;;;;4872912;29;20033;-67
2023/05/18 08:33:05;;;;;;;15.93;3.60;;;15.30;90.30;;;;;;4872099;29;20097;-67
2023/05/18 08:35:31;;;;;;;4.53;2.33;;;15.10;88.50;;;;;;4872575;29;20029;-67
2023/05/18 08:37:57;;;;;;;8.07;2.45;;;15.40;90.30;;;;;;4872236;29;20257;-70
2023/05/18 08:40:30;;;;;;;6.43;2.30;;;15.50;88.60;;;;;;4872151;29;20044;-72
2023/05/18 08:43:05;;;;;;;5.65;2.17;;;15.60;90.40;;;;;;4877450;29;20339;-69
2023/05/18 08:45:46;;;;;;;9.68;2.28;;;15.70;86.50;;;;;;4878998;29;20069;-70
2023/05/18 08:48:15;;;;;;;8.27;2.38;;;15.80;85.60;;;;;;4871737;29;20037;-70
2023/05/18 08:50:43;;;;;;;7.70;2.70;;;15.90;85.30;;;;;;4882096;29;20029;-69
2023/05/18 08:53:10;;;;;;;7.57;2.25;;;15.80;84.10;;;;;;4873014;29;20107;-69
2023/05/18 08:55:36;;;;;;;8.82;3.13;;;15.90;84.30;;;;;;4872063;29;20330;-69
2023/05/18 08:58:07;;;;;;;8.55;2.38;;;16.10;83.60;;;;;;4874324;29;20033;-70
2023/05/18 09:00:33;;;;;;;6.18;2.00;;;16.00;84.00;;;;;;4872158;29;20219;-69
2023/05/18 09:03:02;;;;;;;9.45;2.45;;;16.10;83.90;;;;;;4873943;29;20108;-70
2023/05/18 09:05:28;;;;;;;8.75;2.45;;;16.10;83.40;;;;;;4880060;29;20073;-70
2023/05/18 09:07:55;;;;;;;8.20;2.25;;;16.40;84.10;;;;;;4871575;29;20057;-70
2023/05/18 09:10:22;;;;;;;9.68;2.42;;;16.50;81.90;;;;;;4864729;29;20033;-69
2023/05/18 09:12:50;;;;;;;7.35;2.58;;;16.60;81.40;;;;;;4875035;29;20053;-70
2023/05/18 09:15:16;;;;;;;8.20;2.10;;;16.80;82.10;;;;;;4873209;29;20048;-70
2023/05/18 09:17:42;;;;;;;9.10;2.40;;;17.00;80.50;;;;;;4875752;29;20125;-70
2023/05/18 09:20:09;;;;;;;6.93;2.10;;;17.00;80.50;;;;;;4870867;29;20096;-69
2023/05/18 09:22:35;;;;;;;6.80;2.58;;;17.10;80.20;;;;;;4871176;29;20040;-70
2023/05/18 09:25:02;;;;;;;7.05;2.38;;;17.30;79.50;;;;;;4870310;29;20196;-70
2023/05/18 09:27:29;;;;;;;7.77;2.57;;;17.30;78.40;;;;;;4871013;29;20045;-70
2023/05/18 09:29:57;;;;;;;6.18;2.53;;;17.40;79.50;;;;;;4877528;29;20037;-69
2023/05/18 09:32:24;;;;;;;;;;;17.50;78.90;;;;;;4890398;29;20041;-69
2023/05/18 09:34:49;;;;;;;7.40;2.33;;;17.50;78.60;;;;;;4890023;29;19915;-69
2023/05/18 09:37:17;;;;;;;8.00;2.40;;;17.70;78.40;;;;;;4889469;29;20036;-69
2023/05/18 09:39:43;;;;;;;7.97;2.75;;;17.90;76.80;;;;;;4889639;29;20259;-70
2023/05/18 09:42:09;;;;;;;7.10;2.40;;;18.10;76.50;;;;;;4889262;29;20306;-71
2023/05/18 09:44:35;;;;;;;5.15;2.28;;;18.50;75.20;;;;;;4872643;29;20025;-70
2023/05/18 09:47:02;;;;;;;7.22;3.03;;;18.60;75.50;;;;;;4870623;29;20045;-69
2023/05/18 09:49:29;;;;;;;8.80;3.03;;;18.40;73.30;;;;;;4873431;29;20121;-70
2023/05/18 09:51:58;;;;;;;8.20;2.72;;;18.10;74.00;;;;;;4881169;29;20052;-71
2023/05/18 09:54:24;;;;;;;7.28;2.38;;;18.00;73.60;;;;;;4871181;29;20037;-70
2023/05/18 09:56:50;;;;;;;8.57;2.42;;;17.90;74.20;;;;;;4871030;29;20052;-70
2023/05/18 09:59:16;;;;;;;10.60;2.53;;;17.80;74.40;;;;;;4884047;29;20088;-70
2023/05/18 10:02:00;;;;;;;5.13;2.78;;;17.80;74.60;;;;;;4889392;29;20369;-71
2023/05/18 10:04:41;;;;;;;6.50;2.40;;;18.00;74.20;;;;;;4875116;29;20041;-70
2023/05/18 10:07:14;;;;;;;6.13;2.22;;;18.40;74.00;;;;;;4870482;29;20109;-71
2023/05/18 10:09:41;;;;;;;6.95;2.33;;;18.80;74.30;;;;;;4870912;29;20045;-70
2023/05/18 10:12:15;;;;;;;5.90;2.53;;;18.90;71.70;;;;;;4870502;29;20049;-70
2023/05/18 10:14:43;;;;;;;9.00;2.20;;;18.60;72.00;;;;;;4870731;29;20044;-70
2023/05/18 10:17:13;;;;;;;;;;;18.30;72.60;;;;;;4871117;29;20041;-70
2023/05/18 10:19:41;;;;;;;9.80;2.72;;;18.10;72.40;;;;;;4875984;29;20248;-69
2023/05/18 10:22:08;;;;;;;9.10;2.13;;;18.20;72.90;;;;;;4879722;29;20073;-70
2023/05/18 10:24:41;;;;;;;9.80;2.28;;;18.30;72.80;;;;;;4876779;29;20022;-69
2023/05/18 10:27:08;;;;;;;6.55;2.40;;;18.50;72.80;;;;;;4870557;29;20256;-69
2023/05/18 10:29:36;;;;;;;6.65;3.03;;;18.70;72.90;;;;;;4881618;29;20033;-69
2023/05/18 10:32:08;;;;;;;8.45;3.13;;;18.60;71.80;;;;;;4869744;29;20029;-69
2023/05/18 10:34:35;;;;;;;6.93;2.92;;;18.20;72.60;;;;;;4870536;29;20037;-70
2023/05/18 10:37:03;;;;;;;10.63;2.65;;;18.00;73.30;;;;;;4878421;29;20284;-69
2023/05/18 10:39:32;;;;;;;9.50;2.35;;;17.90;71.70;;;;;;4870768;29;20048;-69
2023/05/18 10:41:59;;;;;;;8.25;2.35;;;18.10;73.20;;;;;;4871824;29;20029;-69
2023/05/18 10:44:25;;;;;;;6.70;2.33;;;18.30;73.30;;;;;;4888654;29;20033;-69
2023/05/18 10:46:52;;;;;;;10.48;2.42;;;18.50;70.30;;;;;;4888627;29;20032;-70
2023/05/18 10:49:22;;;;;;;11.85;2.80;;;18.20;70.90;;;;;;4882349;29;20057;-69
2023/05/18 10:51:51;;;;;;;8.85;2.35;;;18.30;71.70;;;;;;4887905;29;20138;-69
2023/05/18 10:54:18;;;;;;;7.63;2.30;;;18.40;71.60;;;;;;4875394;29;20392;-68
2023/05/18 10:56:48;;;;;;;5.65;2.08;;;18.70;72.00;;;;;;4868638;29;20238;-70
2023/05/18 10:59:14;;;;;;;7.40;2.75;;;18.90;71.10;;;;;;4869248;29;20041;-70
2023/05/18 11:01:41;;;;;;;10.38;2.08;;;19.00;70.90;;;;;;4869315;29;20381;-69
2023/05/18 11:04:07;;;;;;;7.18;1.92;;;19.20;70.30;;;;;;4881747;29;20036;-69
2023/05/18 11:06:34;;;;;;;8.38;2.63;;;19.30;70.00;;;;;;4888676;29;20100;-69
2023/05/18 11:09:00;;;;;;;7.40;2.15;;;19.30;69.40;;;;;;4888755;29;20047;-70
2023/05/18 11:11:30;;;;;;;6.28;2.33;;;19.40;69.20;;;;;;4887932;29;20052;-70
2023/05/18 11:14:00;;;;;;;8.25;2.00;;;19.40;69.30;;;;;;4888472;29;20037;-70
2023/05/18 11:16:34;;;;;;;7.80;2.05;;;19.70;69.40;;;;;;4887827;29;20041;-70
2023/05/18 11:19:10;;;;;;;7.97;2.42;;;19.60;68.00;;;;;;4888289;29;20051;-70
2023/05/18 11:21:35;;;;;;;6.07;2.08;;;19.70;68.30;;;;;;4888532;29;20037;-70
2023/05/18 11:24:25;;;;;;;4.68;2.22;;;19.90;67.70;;;;;;4888073;29;20077;-69
2023/05/18 11:27:13;;;;;;;4.25;1.58;;;20.20;67.30;;;;;;4888434;29;20100;-68
2023/05/18 11:29:43;;;;;;;10.20;1.83;;;20.70;66.50;;;;;;4873434;29;20057;-69
2023/05/18 11:32:28;;;;;;;5.93;2.08;;;21.20;65.00;;;;;;4869192;29;20049;-70
2023/05/18 11:34:55;;;;;;;5.53;2.10;;;21.90;65.40;;;;;;4876687;29;20044;-69
2023/05/18 11:37:38;;;;;;;7.07;2.08;;;22.10;63.40;;;;;;4887613;29;20308;-70
2023/05/18 11:40:08;;;;;;;6.07;2.20;;;22.90;62.50;;;;;;4887855;29;20068;-70
2023/05/18 11:42:34;;;;;;;5.55;2.03;;;24.00;61.40;;;;;;4887953;29;20081;-75
2023/05/18 11:45:07;;;;;;;7.60;2.05;;;24.70;59.20;;;;;;4888357;29;20097;-69
2023/05/18 11:47:35;;;;;;;5.13;1.85;;;25.30;57.70;;;;;;4888064;29;20100;-69
2023/05/18 11:50:01;;;;;;;5.57;1.88;;;25.50;56.70;;;;;;4891364;29;20037;-70
2023/05/18 11:52:27;;;;;;;7.68;2.00;;;26.20;56.30;;;;;;4878174;29;20030;-70
2023/05/18 11:54:54;;;;;;;6.22;2.03;;;26.90;55.60;;;;;;4873017;29;20082;-70
2023/05/18 11:57:25;;;;;;;6.15;1.77;;;27.20;54.70;;;;;;4872551;29;20030;-70
2023/05/18 11:59:58;;;;;;;5.38;1.90;;;26.50;54.50;;;;;;4878089;29;20099;-70
2023/05/18 12:02:31;;;;;;;6.25;1.90;;;26.20;54.30;;;;;;4890893;29;20066;-69
2023/05/18 12:05:01;;;;;;;5.47;2.05;;;26.10;54.50;;;;;;4873215;29;20126;-70
2023/05/18 12:07:29;;;;;;;5.15;1.77;;;26.40;54.50;;;;;;4872132;29;20049;-69
2023/05/18 12:10:02;;;;;;;7.47;1.90;;;26.30;55.60;;;;;;4872713;29;20077;-70
2023/05/18 12:12:28;;;;;;;5.78;1.92;;;27.30;53.60;;;;;;4872568;29;20029;-70
2023/05/18 12:14:57;;;;;;;5.18;1.60;;;27.80;53.50;;;;;;4872488;29;20041;-70
2023/05/18 12:17:41;;;;;;;5.15;1.85;;;27.90;53.50;;;;;;4872235;29;20289;-70
2023/05/18 12:20:10;;;;;;;7.53;2.30;;;28.60;52.00;;;;;;4879805;29;20033;-70
2023/05/18 12:22:36;;;;;;;5.50;1.80;;;27.80;52.50;;;;;;4891017;29;20025;-69
2023/05/18 12:25:01;;;;;;;6.18;1.60;;;26.40;53.30;;;;;;4891228;29;20188;-70
2023/05/18 12:27:28;;;;;;;6.50;1.70;;;27.10;52.80;;;;;;4890667;29;20044;-70
2023/05/18 12:29:53;;;;;;;7.22;1.85;;;27.70;52.30;;;;;;4891088;29;20029;-69
2023/05/18 12:32:19;;;;;;;6.85;1.80;;;27.80;52.60;;;;;;4890544;29;20064;-69
2023/05/18 12:34:45;;;;;;;5.15;1.80;;;27.90;51.50;;;;;;4891008;29;20029;-70
2023/05/18 12:37:11;;;;;;;5.13;1.75;;;29.10;51.70;;;;;;4890158;29;20200;-70
2023/05/18 12:39:36;;;;;;;4.53;1.70;;;30.20;49.90;;;;;;4891084;29;20117;-70
2023/05/18 12:42:10;;;;;;;5.03;1.65;;;30.90;48.80;;;;;;4890988;29;20041;-69
2023/05/18 12:44:36;;;;;;;4.78;1.73;;;30.70;49.40;;;;;;4873758;29;20037;-69
2023/05/18 12:47:02;;;;;;;7.30;1.90;;;29.70;49.10;;;;;;4865772;29;20028;-69
2023/05/18 12:49:34;;;;;;;3.92;1.48;;;28.50;50.10;;;;;;4890159;29;20053;-69
2023/05/18 12:52:07;;;;;;;5.97;1.50;;;28.90;50.90;;;;;;4890948;29;20088;-68
2023/05/18 12:54:33;;;;;;;6.20;1.85;;;29.80;49.10;;;;;;4874603;29;20033;-69
2023/05/18 12:57:06;;;;;;;5.95;1.52;;;30.40;48.60;;;;;;4864743;29;20089;-70
2023/05/18 12:59:32;;;;;;;4.35;1.58;;;29.60;49.50;;;;;;4886388;29;20033;-70
2023/05/18 13:01:57;;;;;;;3.67;1.48;;;28.40;49.40;;;;;;4871013;29;20057;-70
2023/05/18 13:04:34;;;;;;;6.18;1.50;;;27.50;50.70;;;;;;4856442;29;20222;-70
2023/05/18 13:06:59;;;;;;;5.88;1.83;;;27.40;50.50;;;;;;4871839;29;20076;-70
2023/05/18 13:09:25;;;;;;;5.38;1.75;;;27.60;49.90;;;;;;4871274;29;20303;-69
2023/05/18 13:11:52;;;;;;;4.43;1.70;;;28.20;50.30;;;;;;4880052;29;20032;-70
2023/05/18 13:14:22;;;;;;;3.45;1.45;;;28.60;50.50;;;;;;4889106;29;20033;-70
2023/05/18 13:16:50;;;;;;;5.53;1.73;;;29.90;49.10;;;;;;4874728;29;20331;-69
2023/05/18 13:19:20;;;;;;;6.20;1.58;;;31.30;47.80;;;;;;4871040;29;20033;-70
2023/05/18 13:21:54;;;;;;;4.22;1.60;;;31.60;48.30;;;;;;4871316;29;20037;-70
2023/05/18 13:24:19;;;;;;;7.18;1.50;;;31.20;48.00;;;;;;4870937;29;20068;-70
2023/05/18 13:26:45;;;;;;;4.15;1.50;;;31.80;47.00;;;;;;4871523;29;20215;-70
2023/05/18 13:29:11;;;;;;;4.97;1.50;;;30.00;47.60;;;;;;4870925;29;20026;-71
2023/05/18 13:31:37;;;;;;;4.65;1.42;;;28.60;48.00;;;;;;4871369;29;20034;-70
2023/05/18 13:34:03;;;;;;;5.55;1.55;;;28.60;48.70;;;;;;4870552;29;20034;-69
2023/05/18 13:36:32;;;;;;;5.03;1.80;;;29.50;47.80;;;;;;4870746;29;20307;-71
2023/05/18 13:38:58;;;;;;;5.47;1.50;;;31.60;48.30;;;;;;4870983;29;20291;-71
2023/05/18 13:41:25;;;;;;;5.68;1.70;;;33.30;45.80;;;;;;4875995;29;20274;-68
2023/05/18 13:43:50;;;;;;;7.50;1.77;;;33.50;45.10;;;;;;4889664;29;20098;-71
2023/05/18 13:46:17;;;;;;;4.75;1.50;;;33.10;44.90;;;;;;4889334;29;20040;-71
2023/05/18 13:48:43;;;;;;;6.32;1.70;;;34.60;44.50;;;;;;4889750;29;20052;-71
2023/05/18 13:51:08;;;;;;;5.63;1.63;;;33.40;44.20;;;;;;4874059;29;20049;-69
2023/05/18 13:53:34;;;;;;;5.03;1.58;;;30.70;45.40;;;;;;4870945;29;20099;-69
2023/05/18 13:56:00;;;;;;;6.22;1.60;;;29.10;48.10;;;;;;4871223;29;20307;-69
2023/05/18 13:58:25;;;;;;;7.00;1.50;;;29.00;46.50;;;;;;4870368;29;20040;-71
2023/05/18 14:00:53;;;;;;;3.83;1.52;;;30.70;46.30;;;;;;4871174;29;20240;-71
2023/05/18 14:03:19;;;;;;;10.05;1.70;;;32.90;45.50;;;;;;4875918;29;20063;-70
2023/05/18 14:05:44;;;;;;;7.60;1.80;;;33.60;44.20;;;;;;4876738;29;20276;-71
2023/05/18 14:08:10;;;;;;;5.22;1.48;;;32.00;45.20;;;;;;4870924;29;20284;-69
2023/05/18 14:10:36;;;;;;;5.45;1.90;;;31.10;45.30;;;;;;4870475;29;20030;-68
2023/05/18 14:13:02;;;;;;;4.75;1.40;;;31.40;45.20;;;;;;4870750;29;20081;-69
2023/05/18 14:15:27;;;;;;;5.63;1.58;;;31.90;45.30;;;;;;4870114;29;20025;-68
2023/05/18 14:17:53;;;;;;;5.30;1.83;;;31.90;45.70;;;;;;4870546;29;20029;-69
2023/05/18 14:20:19;;;;;;;5.32;1.60;;;30.00;45.50;;;;;;4870328;29;20029;-69
2023/05/18 14:22:45;;;;;;;5.43;1.60;;;29.60;45.70;;;;;;4870111;29;20032;-70
2023/05/18 14:25:10;;;;;;;5.70;1.55;;;30.80;45.00;;;;;;4870421;29;20065;-69
2023/05/18 14:27:36;;;;;;;4.82;1.80;;;32.00;44.50;;;;;;4869733;29;20041;-70
2023/05/18 14:30:02;;;;;;;11.27;2.10;;;33.10;44.10;;;;;;4870120;29;20220;-71
2023/05/18 14:32:28;;;;;;;6.95;1.55;;;31.00;45.00;;;;;;4868842;29;20032;-69
2023/05/18 14:34:54;;;;;;;6.95;1.88;;;29.20;45.80;;;;;;4870510;29;20033;-69
2023/05/18 14:37:20;;;;;;;6.90;2.00;;;27.30;47.50;;;;;;4869713;29;20036;-70
2023/05/18 14:39:46;;;;;;;8.05;2.15;;;25.70;48.80;;;;;;4870185;29;20239;-70
2023/05/18 14:42:11;;;;;;;5.32;1.98;;;25.50;49.30;;;;;;4882133;29;20040;-69
2023/05/18 14:44:37;;;;;;;5.38;1.73;;;26.20;48.10;;;;;;4872628;29;20215;-69
2023/05/18 14:47:03;;;;;;;6.78;1.33;;;25.60;48.30;;;;;;4870232;29;20128;-69
2023/05/18 14:49:29;;;;;;;5.28;1.73;;;25.60;49.00;;;;;;4872804;29;20330;-70
2023/05/18 14:51:54;;;;;;;6.20;1.90;;;26.10;49.30;;;;;;4880723;29;20037;-71
2023/05/18 14:54:21;;;;;;;5.60;1.83;;;28.50;48.00;;;;;;4869533;29;20181;-68
2023/05/18 14:56:46;;;;;;;3.97;1.40;;;30.00;45.70;;;;;;4870128;29;20206;-70
2023/05/18 14:59:12;;;;;;;4.25;1.92;;;31.20;45.00;;;;;;4870004;29;20033;-69
2023/05/18 15:01:38;;;;;;;6.10;1.60;;;31.00;44.60;;;;;;4871237;29;20101;-70
2023/05/18 15:04:04;;;;;;;6.22;1.90;;;29.20;45.90;;;;;;4888054;29;20036;-70
2023/05/18 15:06:30;;;;;;;5.53;1.65;;;28.00;47.50;;;;;;4870191;29;20057;-70
2023/05/18 15:08:56;;;;;;;4.72;1.58;;;27.10;47.20;;;;;;4870245;29;20302;-70
2023/05/18 15:11:21;;;;;;;4.88;1.35;;;25.80;48.70;;;;;;4869500;29;20038;-69
2023/05/18 15:13:48;;;;;;;5.40;1.48;;;25.10;49.40;;;;;;4853385;29;20061;-69
2023/05/18 15:16:14;;;;;;;7.47;1.48;;;24.30;50.10;;;;;;4869796;29;20065;-70
2023/05/18 15:18:40;;;;;;;5.25;1.50;;;23.80;50.10;;;;;;4869767;29;20057;-69
2023/05/18 15:21:06;;;;;;;8.30;1.83;;;23.20;51.00;;;;;;4869932;29;20292;-69
2023/05/18 15:23:32;;;;;;;4.68;1.67;;;22.90;52.20;;;;;;4870336;29;20252;-69
2023/05/18 15:25:58;;;;;;;4.13;1.50;;;22.90;52.30;;;;;;4873570;29;20037;-70
2023/05/18 15:28:24;;;;;;;4.45;1.40;;;22.70;51.70;;;;;;4873351;29;20041;-69
2023/05/18 15:30:50;;;;;;;5.85;1.65;;;22.60;52.90;;;;;;4873451;29;20040;-69
2023/05/18 15:33:15;;;;;;;5.57;1.67;;;22.40;53.30;;;;;;4873517;29;20253;-69
2023/05/18 15:35:41;;;;;;;6.35;1.65;;;22.50;53.30;;;;;;4872986;29;20059;-70
2023/05/18 15:38:07;;;;;;;7.75;1.90;;;22.80;54.10;;;;;;4873124;29;20231;-70
2023/05/18 15:40:33;;;;;;;6.00;1.85;;;22.90;53.10;;;;;;4872977;29;20091;-70
2023/05/18 15:42:58;;;;;;;6.28;1.60;;;22.80;53.00;;;;;;4886646;29;20064;-70
2023/05/18 15:45:25;;;;;;;7.32;1.50;;;22.20;53.80;;;;;;4873112;29;20044;-70
2023/05/18 15:47:50;;;;;;;4.45;1.50;;;21.80;54.70;;;;;;4873309;29;20029;-70
2023/05/18 15:50:16;;;;;;;9.32;2.50;;;21.50;55.50;;;;;;4865965;29;20056;-70
2023/05/18 15:52:42;;;;;;;7.53;1.80;;;21.50;55.50;;;;;;4889792;29;20029;-70
2023/05/18 15:55:08;;;;;;;6.65;1.98;;;21.00;55.70;;;;;;4873263;29;20054;-70
2023/05/18 15:57:34;;;;;;;6.57;1.45;;;21.00;56.70;;;;;;4872884;29;20323;-70
2023/05/18 15:59:59;;;;;;;4.68;1.67;;;20.90;56.60;;;;;;4879463;29;20036;-69
2023/05/18 16:02:25;;;;;;;4.22;1.70;;;20.90;56.50;;;;;;4878399;29;20383;-69
2023/05/18 16:04:51;;;;;;;7.32;1.90;;;20.60;56.40;;;;;;4890238;29;20077;-69
2023/05/18 16:07:17;;;;;;;5.10;1.70;;;20.50;57.20;;;;;;4880315;29;20065;-69
2023/05/18 16:09:42;;;;;;;7.05;1.67;;;20.40;57.30;;;;;;4876560;29;20089;-70
2023/05/18 16:12:08;;;;;;;5.88;1.80;;;20.20;57.90;;;;;;4893235;29;20033;-69
2023/05/18 16:14:34;;;;;;;6.35;1.95;;;20.20;58.30;;;;;;4892130;29;20092;-71
2023/05/18 16:17:00;;;;;;;6.18;1.80;;;20.30;58.10;;;;;;4891822;29;20255;-69
2023/05/18 16:19:26;;;;;;;6.30;1.65;;;20.30;57.70;;;;;;4891050;29;20241;-70
2023/05/18 16:21:51;;;;;;;4.18;1.40;;;20.20;58.10;;;;;;4874966;29;20033;-70
2023/05/18 16:24:17;;;;;;;5.22;1.65;;;20.10;57.90;;;;;;4891357;29;20037;-71
2023/05/18 16:26:43;;;;;;;5.68;1.60;;;19.90;58.80;;;;;;4890672;29;20059;-70
2023/05/18 16:29:09;;;;;;;6.38;1.67;;;19.80;58.50;;;;;;4891391;29;20045;-70
2023/05/18 16:31:35;;;;;;;4.15;1.73;;;19.70;58.70;;;;;;4884472;29;20085;-70
2023/05/18 16:34:03;;;;;;;7.22;1.90;;;19.70;59.00;;;;;;4872599;29;20051;-70
2023/05/18 16:36:30;;;;;;;8.07;2.10;;;19.60;60.00;;;;;;4872244;29;20037;-70
2023/05/18 16:38:56;;;;;;;5.05;1.77;;;19.70;59.70;;;;;;4872383;29;20037;-70
2023/05/18 16:41:22;;;;;;;7.75;1.92;;;19.80;59.20;;;;;;4877171;29;20033;-70
2023/05/18 16:43:47;;;;;;;4.43;1.83;;;19.80;59.40;;;;;;4890933;29;20031;-70
2023/05/18 16:46:13;;;;;;;7.18;2.05;;;19.70;59.60;;;;;;4874862;29;20085;-70
2023/05/18 16:48:39;;;;;;;6.85;1.50;;;19.60;59.90;;;;;;4872173;29;20026;-69
2023/05/18 16:51:05;;;;;;;7.60;1.90;;;19.40;59.40;;;;;;4872381;29;20052;-70
2023/05/18 16:53:32;;;;;;;5.57;1.90;;;19.30;59.60;;;;;;4871554;29;20093;-70
2023/05/18 16:55:58;;;;;;;6.45;1.52;;;19.40;59.50;;;;;;4872289;29;20033;-71
2023/05/18 16:58:24;;;;;;;5.75;1.75;;;19.40;59.70;;;;;;4871668;29;20207;-71
2023/05/18 17:00:49;;;;;;;7.53;1.77;;;19.40;59.50;;;;;;4872004;29;20045;-71
2023/05/18 17:03:16;;;;;;;5.38;1.73;;;19.40;59.30;;;;;;4877232;29;20037;-71
2023/05/18 17:05:42;;;;;;;7.20;1.73;;;19.40;59.50;;;;;;4877670;29;20093;-70
2023/05/18 17:08:09;;;;;;;5.15;1.92;;;19.40;59.60;;;;;;4872936;29;20201;-70
2023/05/18 17:10:36;;;;;;;5.73;1.60;;;19.40;59.50;;;;;;4878221;29;20245;-71
2023/05/18 17:13:02;;;;;;;6.10;1.70;;;19.30;59.40;;;;;;4855374;29;20036;-71
2023/05/18 17:15:29;;;;;;;6.25;1.85;;;19.30;59.50;;;;;;4871488;29;20082;-71
2023/05/18 17:17:55;;;;;;;5.47;1.85;;;19.30;59.30;;;;;;4871893;29;20058;-71
2023/05/18 17:20:21;;;;;;;6.40;1.80;;;19.30;59.00;;;;;;4871510;29;20192;-71
2023/05/18 17:22:47;;;;;;;6.05;1.77;;;19.20;59.30;;;;;;4870774;29;20037;-71
2023/05/18 17:25:12;;;;;;;6.63;1.60;;;19.20;60.30;;;;;;4871757;29;20068;-71
2023/05/18 17:27:38;;;;;;;5.50;1.60;;;19.00;59.80;;;;;;4871200;29;20041;-71
2023/05/18 17:30:05;;;;;;;5.72;1.52;;;19.00;60.70;;;;;;4871387;29;20033;-70
2023/05/18 17:32:31;;;;;;;8.25;2.08;;;19.00;60.50;;;;;;4870818;29;20045;-70
2023/05/18 17:34:56;;;;;;;6.47;2.05;;;18.90;60.30;;;;;;4877763;29;20017;-71
2023/05/18 17:37:22;;;;;;;5.40;1.60;;;18.80;61.20;;;;;;4871492;29;20253;-71
2023/05/18 17:39:48;;;;;;;6.60;1.95;;;18.80;61.10;;;;;;4874866;29;20244;-71
2023/05/18 17:42:14;;;;;;;5.68;1.60;;;18.70;61.20;;;;;;4890230;29;20039;-71
2023/05/18 17:44:40;;;;;;;8.82;2.03;;;18.60;61.30;;;;;;4873164;29;20045;-71
2023/05/18 17:47:06;;;;;;;6.38;2.00;;;18.50;61.30;;;;;;4870663;29;20052;-71
2023/05/18 17:49:32;;;;;;;7.30;1.90;;;18.50;61.90;;;;;;4870977;29;20030;-70
2023/05/18 17:51:58;;;;;;;5.38;1.77;;;18.50;61.60;;;;;;4871030;29;20100;-70